Time;durP1;ratioP1;P1;durP2;ratioP2;P2;SDS_P1;SDS_P2;PMS_P1;PMS_P2;Temp;Humidity;BMP_temperature;BMP_pressure;BME280_temperature;BME280_humidity;BME280_pressure;Samples;Min_cycle;Max_cycle;Signal;HPM_P1;HPM_P2
2022/06/04 00:00:44;;;;;;;;;;;18.40;86.70;;;;;;4970488;28;20051;-56
2022/06/04 00:03:10;;;;;;;2.45;1.60;;;18.50;87.10;;;;;;4969545;28;20396;-57
2022/06/04 00:05:40;;;;;;;4.20;1.70;;;18.50;86.90;;;;;;4969820;28;20051;-56
2022/06/04 00:08:08;;;;;;;1.63;1.40;;;18.50;86.90;;;;;;4968811;28;20389;-57
2022/06/04 00:16:07;;;;;;;5.78;1.83;;;18.40;87.10;;;;;;4965966;28;20047;-56
2022/06/04 00:18:34;;;;;;;1.98;1.40;;;18.40;87.10;;;;;;4968270;28;20050;-56
2022/06/04 00:21:00;;;;;;;3.03;1.65;;;18.40;87.20;;;;;;4967324;28;20126;-58
2022/06/04 00:23:26;;;;;;;;;;;18.40;87.20;;;;;;4969275;28;20534;-57
2022/06/04 00:25:55;;;;;;;3.20;1.73;;;18.40;87.40;;;;;;4967668;28;20279;-56
2022/06/04 00:28:23;;;;;;;3.42;1.52;;;18.40;87.30;;;;;;4968563;28;20070;-57
2022/06/04 00:30:51;;;;;;;2.67;1.38;;;18.40;87.30;;;;;;4969004;28;20043;-57
2022/06/04 00:33:17;;;;;;;1.65;1.50;;;18.40;87.40;;;;;;4967470;28;20131;-57
2022/06/04 00:35:45;;;;;;;3.30;1.20;;;18.40;87.50;;;;;;4968330;28;20133;-56
2022/06/04 00:38:14;;;;;;;2.75;1.45;;;18.40;87.50;;;;;;4970434;28;20130;-56
2022/06/04 00:40:59;;;;;;;1.70;1.35;;;18.40;87.60;;;;;;4970614;28;20078;-57
2022/06/04 00:43:25;;;;;;;2.10;1.20;;;18.40;87.60;;;;;;4969658;28;20078;-56
2022/06/04 00:46:09;;;;;;;;;;;18.40;87.60;;;;;;4972936;28;20520;-57
2022/06/04 00:48:35;;;;;;;3.88;1.40;;;18.40;87.80;;;;;;4972865;28;20295;-56
2022/06/04 00:51:02;;;;;;;;;;;18.40;87.70;;;;;;4972580;28;20105;-56
2022/06/04 00:53:27;;;;;;;3.67;1.60;;;18.40;87.90;;;;;;4972324;28;19926;-57
2022/06/04 00:56:04;;;;;;;;;;;18.30;87.60;;;;;;4970839;28;20551;-57
2022/06/04 00:58:39;;;;;;;5.00;1.50;;;18.40;88.00;;;;;;4970033;28;19949;-56
2022/06/04 01:01:21;;;;;;;2.67;1.70;;;18.30;87.70;;;;;;4971545;28;20117;-58
2022/06/04 01:04:00;;;;;;;2.42;1.40;;;18.30;87.80;;;;;;4972393;28;20038;-56
2022/06/04 01:06:40;;;;;;;3.80;1.80;;;18.30;87.80;;;;;;4971831;28;20050;-57
2022/06/04 01:09:35;;;;;;;2.45;1.85;;;18.30;87.90;;;;;;4970977;28;20082;-58
2022/06/04 01:12:16;;;;;;;2.65;1.40;;;18.30;87.90;;;;;;4971716;28;20043;-57
2022/06/04 01:15:09;;;;;;;3.15;1.80;;;18.30;88.00;;;;;;4971964;28;20050;-57
2022/06/04 01:18:01;;;;;;;3.33;1.67;;;18.30;88.00;;;;;;4971328;28;20050;-58
2022/06/04 01:21:00;;;;;;;3.05;1.80;;;18.30;88.10;;;;;;4969224;28;20141;-57
2022/06/04 01:24:03;;;;;;;3.40;1.80;;;18.30;88.10;;;;;;4959827;28;20055;-57
2022/06/04 01:26:41;;;;;;;2.65;1.83;;;18.30;88.20;;;;;;4968038;28;20039;-57
2022/06/04 01:29:16;;;;;;;5.13;2.03;;;18.30;88.10;;;;;;4970300;28;20046;-58
2022/06/04 01:31:46;;;;;;;5.13;1.73;;;18.30;88.10;;;;;;4971523;28;20663;-57
2022/06/04 01:34:31;;;;;;;1.85;1.33;;;18.30;88.10;;;;;;4970969;28;20118;-57
2022/06/04 01:37:04;;;;;;;2.28;1.50;;;18.30;88.20;;;;;;4971728;28;20101;-57
2022/06/04 01:42:23;;;;;;;3.28;1.77;;;18.30;88.20;;;;;;4970310;28;20130;-57
2022/06/04 01:44:52;;;;;;;3.72;1.70;;;18.30;88.20;;;;;;4972757;28;20054;-57
2022/06/04 01:47:20;;;;;;;3.05;1.63;;;18.30;88.30;;;;;;4971356;28;20134;-57
2022/06/04 01:49:52;;;;;;;4.60;1.90;;;18.30;88.30;;;;;;4971328;28;20059;-57
2022/06/04 01:52:25;;;;;;;3.47;2.03;;;18.30;88.40;;;;;;4971185;28;20059;-57
2022/06/04 01:54:56;;;;;;;1.90;1.45;;;18.30;88.40;;;;;;4970759;28;20090;-57
2022/06/04 01:57:21;;;;;;;3.17;1.65;;;18.30;88.50;;;;;;4972037;28;20120;-57
2022/06/04 01:59:51;;;;;;;;;;;18.30;88.40;;;;;;4971775;28;20508;-57
2022/06/04 02:02:23;;;;;;;3.63;1.60;;;18.30;88.50;;;;;;4971960;28;19925;-57
2022/06/04 02:04:53;;;;;;;1.83;1.45;;;18.30;88.40;;;;;;4971683;28;20518;-57
2022/06/04 02:07:32;;;;;;;3.67;1.77;;;18.30;89.00;;;;;;4971978;28;20098;-57
2022/06/04 02:10:08;;;;;;;2.20;1.63;;;18.30;88.40;;;;;;4970367;28;20062;-57
2022/06/04 02:12:36;;;;;;;2.95;1.50;;;18.30;88.40;;;;;;4971882;28;20054;-57
2022/06/04 02:15:09;;;;;;;4.45;1.85;;;18.30;88.50;;;;;;4972271;28;20043;-57
2022/06/04 02:17:38;;;;;;;4.93;1.60;;;18.30;88.50;;;;;;4970910;28;20050;-57
2022/06/04 02:20:04;;;;;;;2.90;2.00;;;18.30;88.50;;;;;;4972014;28;20062;-57
2022/06/04 02:22:31;;;;;;;3.17;1.65;;;18.30;88.50;;;;;;4970729;28;20050;-57
2022/06/04 02:25:04;;;;;;;3.08;1.83;;;18.30;88.50;;;;;;4969660;28;20496;-57
2022/06/04 02:27:30;;;;;;;3.25;1.60;;;18.30;88.50;;;;;;4971580;28;20714;-57
2022/06/04 02:29:55;;;;;;;;;;;18.30;88.60;;;;;;4972023;28;20043;-57
2022/06/04 02:32:40;;;;;;;5.13;1.63;;;18.30;88.60;;;;;;4971176;28;20060;-57
2022/06/04 02:35:27;;;;;;;4.13;1.88;;;18.20;88.70;;;;;;4971204;28;20407;-57
2022/06/04 02:38:19;;;;;;;2.85;1.70;;;18.30;88.60;;;;;;4971722;28;20117;-57
2022/06/04 02:40:53;;;;;;;2.50;1.60;;;18.30;88.60;;;;;;4966024;28;20065;-57
2022/06/04 02:43:22;;;;;;;2.70;1.52;;;18.30;88.60;;;;;;4970494;28;20057;-57
2022/06/04 02:46:01;;;;;;;3.72;1.80;;;18.20;88.50;;;;;;4971018;28;20161;-57
2022/06/04 02:48:59;;;;;;;2.80;1.77;;;18.30;88.60;;;;;;4969488;28;20472;-57
2022/06/04 02:51:37;;;;;;;3.38;1.98;;;18.20;88.60;;;;;;4959747;28;20420;-57
2022/06/04 02:54:06;;;;;;;4.25;1.98;;;18.20;88.60;;;;;;4970611;28;20050;-57
2022/06/04 02:56:34;;;;;;;2.80;1.42;;;18.20;88.80;;;;;;4969529;28;20125;-57
2022/06/04 02:59:04;;;;;;;4.38;2.00;;;18.20;88.60;;;;;;4969925;28;20047;-57
2022/06/04 03:01:35;;;;;;;2.72;1.63;;;18.20;88.60;;;;;;4969406;28;20317;-57
2022/06/04 03:04:03;;;;;;;2.75;1.58;;;18.20;88.70;;;;;;4970357;28;20539;-57
2022/06/04 03:06:30;;;;;;;3.17;1.50;;;18.20;88.70;;;;;;4970539;28;20086;-57
2022/06/04 03:08:57;;;;;;;2.70;1.50;;;18.20;88.70;;;;;;4969822;28;20051;-57
2022/06/04 03:11:23;;;;;;;4.95;1.95;;;18.20;88.70;;;;;;4969719;28;20432;-56
2022/06/04 03:13:49;;;;;;;2.20;1.40;;;18.20;88.80;;;;;;4970696;28;20396;-57
2022/06/04 03:16:16;;;;;;;;;;;18.20;88.80;;;;;;4971219;28;20059;-57
2022/06/04 03:18:42;;;;;;;4.17;2.00;;;18.20;88.80;;;;;;4970735;28;19984;-57
2022/06/04 03:21:08;;;;;;;4.13;2.17;;;18.20;88.70;;;;;;4970336;28;20453;-57
2022/06/04 03:23:33;;;;;;;;;;;18.20;88.70;;;;;;4970329;28;20050;-57
2022/06/04 03:25:59;;;;;;;2.40;1.80;;;18.20;88.80;;;;;;4969153;28;19930;-57
2022/06/04 03:28:25;;;;;;;;;;;18.20;88.80;;;;;;4970392;28;20653;-57
2022/06/04 03:30:50;;;;;;;3.80;1.80;;;18.20;88.80;;;;;;4970437;28;19933;-57
2022/06/04 03:33:16;;;;;;;;;;;18.20;88.70;;;;;;4971019;28;20051;-58
2022/06/04 03:35:43;;;;;;;6.05;1.90;;;18.20;88.90;;;;;;4969825;28;19948;-57
2022/06/04 03:38:09;;;;;;;3.85;2.00;;;18.20;88.70;;;;;;4969803;28;20126;-57
2022/06/04 03:40:35;;;;;;;4.20;1.55;;;18.20;88.70;;;;;;4968004;28;20158;-57
2022/06/04 03:43:01;;;;;;;;;;;18.20;88.80;;;;;;4970621;28;20122;-57
2022/06/04 03:45:26;;;;;;;4.35;2.20;;;18.20;88.90;;;;;;4969626;28;19922;-57
2022/06/04 03:47:53;;;;;;;;;;;18.20;88.80;;;;;;4969926;28;20145;-57
2022/06/04 03:50:19;;;;;;;4.05;1.90;;;18.20;88.90;;;;;;4969789;28;19933;-58
2022/06/04 03:52:46;;;;;;;2.80;1.75;;;18.20;88.80;;;;;;4970283;28;20064;-57
2022/06/04 03:55:14;;;;;;;3.35;1.73;;;18.20;88.80;;;;;;4968882;28;20109;-57
2022/06/04 03:57:45;;;;;;;2.92;1.85;;;18.20;88.80;;;;;;4969569;28;20050;-57
2022/06/04 04:00:23;;;;;;;2.50;1.55;;;18.20;88.80;;;;;;4970276;28;20428;-57
2022/06/04 04:02:55;;;;;;;4.53;1.95;;;18.20;88.90;;;;;;4970185;28;20043;-57
2022/06/04 04:05:25;;;;;;;3.85;1.95;;;18.20;88.90;;;;;;4969356;28;20082;-57
2022/06/04 04:07:51;;;;;;;3.42;1.85;;;18.20;88.90;;;;;;4970580;28;20054;-57
2022/06/04 04:10:17;;;;;;;3.60;1.73;;;18.20;88.90;;;;;;4967910;28;20050;-57
2022/06/04 04:12:44;;;;;;;2.50;1.65;;;18.20;88.90;;;;;;4971098;28;20062;-57
2022/06/04 04:15:10;;;;;;;;;;;18.20;88.90;;;;;;4974320;28;20408;-57
2022/06/04 04:17:39;;;;;;;1.80;1.38;;;18.20;88.90;;;;;;4973470;28;19922;-57
2022/06/04 04:20:09;;;;;;;2.60;1.58;;;18.20;88.90;;;;;;4973467;28;20271;-57
2022/06/04 04:22:35;;;;;;;4.47;1.65;;;18.20;88.90;;;;;;4972289;28;20050;-57
2022/06/04 04:25:01;;;;;;;2.55;1.52;;;18.20;88.80;;;;;;4972466;28;20078;-57
2022/06/04 04:27:27;;;;;;;2.90;1.65;;;18.20;88.80;;;;;;4973207;28;20054;-57
2022/06/04 04:29:53;;;;;;;;;;;18.20;88.80;;;;;;4974105;28;20114;-57
2022/06/04 04:32:18;;;;;;;5.25;1.60;;;18.20;88.80;;;;;;4973697;28;20456;-57
2022/06/04 04:34:44;;;;;;;;;;;18.20;88.80;;;;;;4973164;28;20038;-57
2022/06/04 04:37:10;;;;;;;4.03;1.98;;;18.20;88.80;;;;;;4973011;28;20343;-57
2022/06/04 04:39:35;;;;;;;;;;;18.20;88.70;;;;;;4972514;28;20109;-57
2022/06/04 04:42:01;;;;;;;3.97;1.73;;;18.20;88.80;;;;;;4972511;28;19921;-57
2022/06/04 04:44:26;;;;;;;;;;;18.20;88.70;;;;;;4973283;28;20121;-57
2022/06/04 04:46:52;;;;;;;3.53;1.60;;;18.20;88.80;;;;;;4973571;28;19929;-55
2022/06/04 04:49:19;;;;;;;3.63;1.70;;;18.20;88.60;;;;;;4973027;28;20173;-57
2022/06/04 04:51:45;;;;;;;3.80;1.80;;;18.20;88.60;;;;;;4973267;28;20093;-57
2022/06/04 04:54:11;;;;;;;4.32;1.90;;;18.20;88.60;;;;;;4972459;28;20042;-57
2022/06/04 04:56:37;;;;;;;;;;;18.30;88.70;;;;;;4972307;28;20046;-57
2022/06/04 04:59:03;;;;;;;3.28;1.95;;;18.30;88.70;;;;;;4972803;28;20292;-57
2022/06/04 05:01:29;;;;;;;;;;;18.20;88.60;;;;;;4973202;28;20058;-57
2022/06/04 05:03:55;;;;;;;4.50;2.08;;;18.30;88.70;;;;;;4973316;28;19937;-57
2022/06/04 05:06:22;;;;;;;2.08;1.60;;;18.30;88.60;;;;;;4973268;28;20054;-57
2022/06/04 05:08:52;;;;;;;3.13;1.65;;;18.30;88.50;;;;;;4971800;28;20125;-58
2022/06/04 05:11:29;;;;;;;4.90;1.80;;;18.30;88.50;;;;;;4972083;28;20054;-57
2022/06/04 05:13:56;;;;;;;4.80;1.70;;;18.30;88.60;;;;;;4973149;28;20047;-57
2022/06/04 05:16:31;;;;;;;3.40;1.80;;;18.30;88.60;;;;;;4972759;28;20138;-57
2022/06/04 05:18:57;;;;;;;4.43;1.75;;;18.30;88.60;;;;;;4972650;28;20506;-57
2022/06/04 05:21:24;;;;;;;;;;;18.30;88.60;;;;;;4972419;28;20050;-57
2022/06/04 05:23:50;;;;;;;;;;;18.30;88.70;;;;;;4972343;28;19922;-57
2022/06/04 05:26:17;;;;;;;3.22;1.90;;;18.30;89.10;;;;;;4970969;28;19933;-57
2022/06/04 05:28:43;;;;;;;5.32;2.10;;;18.30;88.50;;;;;;4972035;28;20054;-57
2022/06/04 05:31:08;;;;;;;;;;;18.40;88.60;;;;;;4972215;28;20126;-57
2022/06/04 05:33:34;;;;;;;3.03;1.48;;;18.30;89.00;;;;;;4972391;28;20614;-57
2022/06/04 05:36:01;;;;;;;;;;;18.40;88.80;;;;;;4972822;28;20455;-57
2022/06/04 05:38:27;;;;;;;5.75;2.72;;;18.30;88.80;;;;;;4972433;28;19926;-58
2022/06/04 05:40:59;;;;;;;;;;;18.40;88.60;;;;;;4968962;28;20054;-57
2022/06/04 05:43:26;;;;;;;2.58;1.65;;;18.30;88.80;;;;;;4972375;28;20371;-57
2022/06/04 05:46:03;;;;;;;1.92;1.50;;;18.40;88.60;;;;;;4970383;28;20527;-57
2022/06/04 05:48:29;;;;;;;2.97;1.77;;;18.40;89.20;;;;;;4972369;28;20065;-57
2022/06/04 05:50:55;;;;;;;;;;;18.40;88.60;;;;;;4972425;28;20722;-57
2022/06/04 05:53:22;;;;;;;3.08;1.70;;;18.40;88.90;;;;;;4972010;28;20356;-58
2022/06/04 05:55:49;;;;;;;3.28;1.77;;;18.40;88.60;;;;;;4969310;28;20050;-57
2022/06/04 05:58:15;;;;;;;3.10;1.90;;;18.40;88.60;;;;;;4972514;28;20046;-57
2022/06/04 06:00:40;;;;;;;;;;;18.40;88.60;;;;;;4970678;28;20077;-57
2022/06/04 06:03:06;;;;;;;2.38;1.63;;;18.50;88.90;;;;;;4971875;28;20265;-57
2022/06/04 06:05:32;;;;;;;;;;;18.40;88.60;;;;;;4972356;28;20058;-57
2022/06/04 06:07:58;;;;;;;3.25;1.60;;;18.40;88.80;;;;;;4972053;28;19926;-57
2022/06/04 06:10:24;;;;;;;2.20;1.38;;;18.50;88.60;;;;;;4970085;28;20575;-57
2022/06/04 06:12:50;;;;;;;;;;;18.40;88.60;;;;;;4971855;28;20146;-57
2022/06/04 06:15:16;;;;;;;1.85;1.40;;;18.50;88.90;;;;;;4971859;28;19929;-57
2022/06/04 06:17:41;;;;;;;2.28;1.70;;;18.50;88.60;;;;;;4971764;28;20563;-57
2022/06/04 06:20:08;;;;;;;;;;;18.50;88.70;;;;;;4970781;28;20480;-57
2022/06/04 06:22:35;;;;;;;3.33;1.75;;;18.50;88.90;;;;;;4970887;28;19925;-57
2022/06/04 06:25:05;;;;;;;2.78;1.75;;;18.50;88.70;;;;;;4969643;28;20054;-57
2022/06/04 06:27:31;;;;;;;1.85;1.48;;;18.50;88.70;;;;;;4971781;28;20050;-58
2022/06/04 06:29:57;;;;;;;5.00;1.80;;;18.50;88.70;;;;;;4971519;28;20047;-56
2022/06/04 06:32:24;;;;;;;;;;;18.50;88.80;;;;;;4972404;28;20047;-57
2022/06/04 06:34:50;;;;;;;3.05;1.73;;;18.50;88.90;;;;;;4970477;28;19933;-57
2022/06/04 06:37:16;;;;;;;4.55;1.70;;;18.50;88.70;;;;;;4971656;28;20055;-57
2022/06/04 06:39:42;;;;;;;;;;;18.50;88.70;;;;;;4968546;28;20046;-58
2022/06/04 06:42:07;;;;;;;2.25;1.50;;;18.50;88.90;;;;;;4970751;28;20016;-57
2022/06/04 06:44:33;;;;;;;;;;;18.50;88.70;;;;;;4970904;28;20485;-57
2022/06/04 06:46:59;;;;;;;2.22;1.63;;;18.50;88.90;;;;;;4970672;28;20006;-57
2022/06/04 06:49:26;;;;;;;;;;;18.50;88.70;;;;;;4971870;28;20054;-57
2022/06/04 06:51:57;;;;;;;;;;;18.60;89.00;;;;;;4971280;28;19928;-57
2022/06/04 06:54:25;;;;;;;2.08;1.70;;;18.50;88.90;;;;;;4951275;28;19965;-57
2022/06/04 06:56:53;;;;;;;3.20;1.88;;;18.60;88.70;;;;;;4970631;28;20687;-57
2022/06/04 06:59:24;;;;;;;3.92;1.65;;;18.50;88.60;;;;;;4970868;28;20090;-57
2022/06/04 07:01:51;;;;;;;2.63;1.50;;;18.60;88.70;;;;;;4971220;28;20062;-57
2022/06/04 07:04:18;;;;;;;4.75;2.03;;;18.50;88.70;;;;;;4970180;28;20050;-57
2022/06/04 07:06:47;;;;;;;2.63;1.80;;;18.50;88.70;;;;;;4970301;28;20592;-57
2022/06/04 07:09:20;;;;;;;2.83;1.65;;;18.60;88.80;;;;;;4969663;28;20622;-57
2022/06/04 07:11:46;;;;;;;3.28;1.80;;;18.60;88.80;;;;;;4969688;28;20055;-58
2022/06/04 07:14:12;;;;;;;;;;;18.60;88.80;;;;;;4966167;28;20114;-57
2022/06/04 07:16:38;;;;;;;3.20;1.83;;;18.60;88.90;;;;;;4969128;28;19932;-57
2022/06/04 07:19:05;;;;;;;1.85;1.45;;;18.60;88.80;;;;;;4970749;28;20105;-57
2022/06/04 07:21:31;;;;;;;4.22;2.10;;;18.60;88.80;;;;;;4970200;28;20047;-57
2022/06/04 07:23:58;;;;;;;3.30;2.00;;;18.60;88.70;;;;;;4969666;28;20047;-57
2022/06/04 07:26:25;;;;;;;2.67;1.73;;;18.60;88.70;;;;;;4968248;28;20122;-57
2022/06/04 07:28:51;;;;;;;3.78;1.50;;;18.60;88.70;;;;;;4985113;28;20046;-57
2022/06/04 07:31:16;;;;;;;;;;;18.60;88.70;;;;;;4970461;28;20047;-58
2022/06/04 07:33:47;;;;;;;3.88;1.60;;;18.60;89.00;;;;;;4969783;28;19988;-57
2022/06/04 07:36:18;;;;;;;3.15;1.65;;;18.60;88.80;;;;;;4968451;28;20217;-57
2022/06/04 07:38:45;;;;;;;2.55;1.65;;;18.60;88.80;;;;;;4968150;28;20570;-57
2022/06/04 07:41:23;;;;;;;5.53;1.70;;;18.60;88.80;;;;;;4969449;28;20086;-57
2022/06/04 07:43:50;;;;;;;2.90;1.52;;;18.60;88.80;;;;;;4968581;28;21383;-57
2022/06/04 07:46:17;;;;;;;2.95;1.40;;;18.70;88.90;;;;;;4970466;28;20055;-57
2022/06/04 07:48:44;;;;;;;4.60;1.80;;;18.70;88.90;;;;;;4967780;28;20057;-57
2022/06/04 07:51:10;;;;;;;2.85;1.55;;;18.70;88.90;;;;;;4969994;28;20131;-56
2022/06/04 07:53:36;;;;;;;2.42;1.40;;;18.70;88.90;;;;;;4969068;28;20043;-57
2022/06/04 07:56:09;;;;;;;;;;;18.70;88.90;;;;;;4968190;28;20050;-56
2022/06/04 07:58:36;;;;;;;3.30;2.00;;;18.70;89.00;;;;;;4970979;28;19992;-56
2022/06/04 08:01:04;;;;;;;4.63;1.80;;;18.70;88.90;;;;;;4970650;28;20130;-56
2022/06/04 08:03:35;;;;;;;3.25;1.80;;;18.70;88.90;;;;;;4971080;28;20050;-57
2022/06/04 08:06:02;;;;;;;3.10;1.80;;;18.70;89.00;;;;;;4968107;28;20047;-57
2022/06/04 08:08:29;;;;;;;5.18;1.83;;;18.70;89.00;;;;;;4971042;28;20090;-57
2022/06/04 08:10:54;;;;;;;2.78;1.50;;;18.70;89.00;;;;;;4967803;28;20057;-57
2022/06/04 08:13:26;;;;;;;;;;;18.70;89.00;;;;;;4970988;28;20047;-57
2022/06/04 08:16:01;;;;;;;3.13;1.90;;;18.70;89.20;;;;;;4969309;28;19922;-57
2022/06/04 08:18:27;;;;;;;4.35;1.58;;;18.70;89.00;;;;;;4969018;28;20051;-56
2022/06/04 08:20:53;;;;;;;4.15;1.75;;;18.70;89.00;;;;;;4970004;28;20053;-57
2022/06/04 08:23:19;;;;;;;;;;;18.70;89.00;;;;;;4970662;28;20035;-57
2022/06/04 08:25:48;;;;;;;4.82;1.75;;;18.70;89.20;;;;;;4967859;28;19922;-56
2022/06/04 08:28:15;;;;;;;2.60;1.58;;;18.70;89.00;;;;;;4969963;28;20126;-56
2022/06/04 08:30:41;;;;;;;3.53;2.00;;;18.70;89.00;;;;;;4969759;28;20121;-57
2022/06/04 08:33:07;;;;;;;3.20;1.70;;;18.70;89.00;;;;;;4969257;28;20054;-56
2022/06/04 08:35:33;;;;;;;;;;;18.70;89.00;;;;;;4968802;28;20413;-56
2022/06/04 08:37:59;;;;;;;2.88;1.70;;;18.80;89.30;;;;;;4969399;28;20009;-56
2022/06/04 08:40:45;;;;;;;;;;;18.70;89.00;;;;;;4967377;28;20130;-56
2022/06/04 08:43:18;;;;;;;3.28;1.50;;;18.80;89.30;;;;;;4968540;28;20073;-57
2022/06/04 08:45:44;;;;;;;2.22;1.55;;;18.70;89.10;;;;;;4967875;28;20511;-57
2022/06/04 08:48:13;;;;;;;;;;;18.80;89.10;;;;;;4970436;28;20043;-56
2022/06/04 08:50:39;;;;;;;2.08;1.45;;;18.70;89.20;;;;;;4966877;28;19945;-57
2022/06/04 08:53:05;;;;;;;;;;;18.70;89.00;;;;;;4969754;28;20581;-57
2022/06/04 08:58:56;;;;;;;3.33;1.85;;;18.80;89.10;;;;;;4972088;28;20254;-56
2022/06/04 09:01:25;;;;;;;3.33;2.13;;;18.70;89.10;;;;;;4974145;28;20055;-57
2022/06/04 09:04:17;;;;;;;4.70;2.20;;;18.80;89.10;;;;;;4973292;28;20407;-57
2022/06/04 09:06:52;;;;;;;6.22;2.35;;;18.80;88.80;;;;;;4973485;28;20046;-57
2022/06/04 09:09:25;;;;;;;3.75;2.20;;;18.70;88.80;;;;;;4973659;28;20435;-56
2022/06/04 09:12:05;;;;;;;5.15;2.17;;;18.70;88.80;;;;;;4973367;28;20129;-57
2022/06/04 09:14:38;;;;;;;3.47;1.95;;;18.70;88.80;;;;;;4974280;28;20039;-56
2022/06/04 09:17:14;;;;;;;5.53;2.20;;;18.70;88.90;;;;;;4956921;28;20133;-56
2022/06/04 09:19:43;;;;;;;4.43;2.05;;;18.70;88.90;;;;;;4972211;28;20477;-56
2022/06/04 09:22:22;;;;;;;5.43;2.00;;;18.70;89.00;;;;;;4969027;28;20059;-56
2022/06/04 09:24:48;;;;;;;5.63;2.17;;;18.70;89.00;;;;;;4952681;28;20118;-57
2022/06/04 09:27:40;;;;;;;6.00;2.42;;;18.80;89.10;;;;;;4973188;28;20082;-56
2022/06/04 09:30:16;;;;;;;5.78;2.25;;;18.70;89.00;;;;;;4973414;28;20253;-56
2022/06/04 09:33:24;;;;;;;4.20;1.80;;;18.80;89.10;;;;;;4973240;28;20070;-56
2022/06/04 09:35:50;;;;;;;4.53;1.80;;;18.70;89.00;;;;;;4953733;28;20109;-56
2022/06/04 09:38:25;;;;;;;3.25;1.90;;;18.80;89.10;;;;;;4972504;28;20528;-57
2022/06/04 09:41:00;;;;;;;3.85;2.00;;;18.80;89.10;;;;;;4971262;28;20515;-55
2022/06/04 09:43:26;;;;;;;4.45;1.90;;;18.80;89.10;;;;;;4976390;28;20058;-56
2022/06/04 09:45:55;;;;;;;6.13;2.47;;;18.80;89.10;;;;;;4972486;28;20488;-57
2022/06/04 09:48:50;;;;;;;6.45;1.92;;;18.80;89.10;;;;;;4973078;28;20061;-55
2022/06/04 09:51:23;;;;;;;4.40;2.10;;;18.80;89.20;;;;;;4972495;28;20117;-55
2022/06/04 09:53:53;;;;;;;3.55;2.05;;;18.80;89.10;;;;;;4973131;28;20374;-57
2022/06/04 09:56:41;;;;;;;4.57;2.10;;;18.80;89.10;;;;;;4972834;28;20050;-62
2022/06/04 09:59:20;;;;;;;3.45;1.90;;;18.80;89.10;;;;;;4972935;28;20054;-56
2022/06/04 10:02:18;;;;;;;3.58;1.40;;;18.80;89.10;;;;;;4973496;28;20094;-56
2022/06/04 10:04:47;;;;;;;3.33;1.63;;;18.80;89.10;;;;;;4953987;28;20059;-56
2022/06/04 10:07:22;;;;;;;3.92;1.90;;;18.80;89.10;;;;;;4971676;28;20057;-55
2022/06/04 10:09:55;;;;;;;2.33;1.73;;;18.80;89.10;;;;;;4968139;28;20038;-57
2022/06/04 10:15:37;;;;;;;4.40;2.03;;;18.80;89.10;;;;;;4973214;28;20105;-56
2022/06/04 10:18:18;;;;;;;2.83;1.85;;;18.80;89.10;;;;;;4972861;28;20054;-56
2022/06/04 10:21:17;;;;;;;5.38;2.38;;;18.80;89.20;;;;;;4973064;28;20051;-55
2022/06/04 10:23:49;;;;;;;3.17;1.80;;;18.80;89.20;;;;;;4959938;28;20035;-55
2022/06/04 10:26:27;;;;;;;4.60;2.05;;;18.80;89.20;;;;;;4970443;28;20043;-56
2022/06/04 10:29:20;;;;;;;5.35;2.20;;;18.80;89.20;;;;;;4971813;28;20097;-57
2022/06/04 10:32:24;;;;;;;2.80;1.70;;;18.80;89.30;;;;;;4969762;28;20053;-57
2022/06/04 10:35:28;;;;;;;4.15;1.90;;;18.80;89.30;;;;;;4915529;28;20056;-57
2022/06/04 10:38:32;;;;;;;3.10;1.67;;;18.90;89.40;;;;;;4949733;28;20059;-56
2022/06/04 10:41:37;;;;;;;3.83;1.90;;;18.80;89.40;;;;;;4966030;28;20047;-56
2022/06/04 10:44:31;;;;;;;3.45;1.83;;;18.90;89.40;;;;;;4951358;28;20050;-57
2022/06/04 10:47:22;;;;;;;2.67;1.63;;;18.80;89.50;;;;;;4961411;28;20042;-56
2022/06/04 10:49:55;;;;;;;2.90;1.58;;;18.80;89.40;;;;;;4971839;28;20098;-57
2022/06/04 10:52:52;;;;;;;2.75;1.60;;;18.80;89.40;;;;;;4972902;28;20051;-55
2022/06/04 10:55:23;;;;;;;5.93;1.58;;;18.90;89.50;;;;;;4968802;28;20059;-56
2022/06/04 10:58:10;;;;;;;4.18;1.65;;;18.80;89.50;;;;;;4970059;28;20054;-56
2022/06/04 11:00:38;;;;;;;;;;;18.80;89.50;;;;;;4972312;28;20093;-55
2022/06/04 11:03:25;;;;;;;4.35;2.10;;;18.80;89.60;;;;;;4970834;28;20360;-56
2022/06/04 11:06:00;;;;;;;4.85;2.28;;;18.80;89.50;;;;;;4970256;28;20050;-56
2022/06/04 11:08:41;;;;;;;4.53;1.95;;;18.90;89.50;;;;;;4970904;28;20093;-56
2022/06/04 11:11:13;;;;;;;3.40;1.95;;;18.80;89.50;;;;;;4975472;28;20117;-55
2022/06/04 11:13:41;;;;;;;3.65;2.00;;;18.80;89.50;;;;;;4971942;28;20079;-55
2022/06/04 11:16:21;;;;;;;2.30;1.40;;;18.80;89.50;;;;;;4972011;28;20449;-55
2022/06/04 11:19:03;;;;;;;2.85;1.70;;;18.90;89.60;;;;;;4971661;28;20049;-56
2022/06/04 11:21:53;;;;;;;3.60;1.60;;;18.80;89.60;;;;;;4971994;28;20484;-54
2022/06/04 11:24:34;;;;;;;2.05;1.50;;;18.80;89.70;;;;;;4959393;28;20077;-55
2022/06/04 11:27:08;;;;;;;3.83;1.83;;;18.90;89.70;;;;;;4971478;28;20058;-56
2022/06/04 11:29:36;;;;;;;3.15;1.65;;;18.90;89.70;;;;;;4970942;28;20057;-56
2022/06/04 11:32:36;;;;;;;2.97;1.92;;;18.90;89.70;;;;;;4971901;28;20070;-56
2022/06/04 11:35:10;;;;;;;3.33;1.75;;;18.90;89.80;;;;;;4971187;28;20051;-56
2022/06/04 11:37:54;;;;;;;3.42;1.70;;;18.90;89.70;;;;;;4972420;28;20484;-56
2022/06/04 11:40:58;;;;;;;2.38;1.50;;;18.90;89.80;;;;;;4967447;28;20075;-54
2022/06/04 11:43:41;;;;;;;3.75;1.60;;;18.90;89.90;;;;;;4960205;28;20101;-56
2022/06/04 11:46:20;;;;;;;3.00;1.60;;;18.90;89.80;;;;;;4971622;28;20590;-54
2022/06/04 11:49:02;;;;;;;2.95;1.40;;;18.90;89.90;;;;;;4972151;28;20051;-56
2022/06/04 11:51:49;;;;;;;2.80;1.40;;;18.90;89.90;;;;;;4971474;28;20404;-56
2022/06/04 11:54:25;;;;;;;1.95;1.60;;;18.90;89.90;;;;;;4970479;28;20049;-56
2022/06/04 11:57:21;;;;;;;2.60;1.60;;;18.90;89.90;;;;;;4971516;28;20058;-49
2022/06/04 11:59:58;;;;;;;8.57;1.85;;;18.90;89.90;;;;;;4971227;28;20058;-56
2022/06/04 12:02:29;;;;;;;10.20;2.03;;;18.90;89.60;;;;;;4971492;28;20072;-56
2022/06/04 12:05:19;;;;;;;4.68;2.33;;;18.90;89.40;;;;;;4970530;28;20058;-56
2022/06/04 12:07:48;;;;;;;3.28;1.83;;;19.00;89.40;;;;;;4971880;28;20105;-56
2022/06/04 12:10:42;;;;;;;3.42;1.80;;;18.90;89.30;;;;;;4969487;28;20055;-54
2022/06/04 12:13:23;;;;;;;5.40;2.10;;;19.00;89.30;;;;;;4971331;28;20042;-56
2022/06/04 12:15:55;;;;;;;3.85;1.88;;;19.00;89.30;;;;;;4971953;28;20126;-56
2022/06/04 12:18:30;;;;;;;4.80;2.10;;;19.00;89.30;;;;;;4971574;28;20376;-54
2022/06/04 12:26:33;;;;;;;3.88;1.80;;;19.00;89.30;;;;;;4951245;29;20134;-55
2022/06/04 12:29:00;;;;;;;5.93;2.08;;;19.00;89.30;;;;;;4970102;28;20094;-56
2022/06/04 12:31:36;;;;;;;6.13;1.75;;;19.00;89.30;;;;;;4971525;28;20482;-56
2022/06/04 12:34:23;;;;;;;2.25;1.50;;;19.00;89.30;;;;;;4973076;28;20150;-57
2022/06/04 12:36:54;;;;;;;5.87;1.97;;;19.00;89.40;;;;;;4975378;28;20567;-56
2022/06/04 12:39:23;;;;;;;2.67;1.80;;;19.00;89.40;;;;;;4974279;28;20109;-56
2022/06/04 12:41:56;;;;;;;4.40;1.83;;;19.00;89.40;;;;;;4974331;28;20465;-56
2022/06/04 12:44:32;;;;;;;4.85;1.77;;;19.00;89.40;;;;;;4975047;28;20043;-56
2022/06/04 12:47:20;;;;;;;4.35;2.20;;;19.00;89.40;;;;;;4975414;28;20055;-56
2022/06/04 12:49:56;;;;;;;3.80;1.98;;;19.00;89.50;;;;;;4975304;28;20067;-56
2022/06/04 12:52:44;;;;;;;2.65;1.70;;;19.00;89.50;;;;;;4974959;28;20628;-56
2022/06/04 12:55:30;;;;;;;3.50;1.70;;;19.00;89.50;;;;;;4971837;28;20062;-57
2022/06/04 12:58:03;;;;;;;3.87;1.67;;;19.00;89.50;;;;;;4975512;28;20059;-56
2022/06/04 13:00:36;;;;;;;3.67;1.75;;;19.00;89.50;;;;;;4974871;28;20274;-56
2022/06/04 13:03:07;;;;;;;5.90;2.03;;;19.00;89.50;;;;;;4975308;28;20055;-56
2022/06/04 13:05:58;;;;;;;2.53;1.40;;;19.00;89.50;;;;;;4974423;28;20058;-56
2022/06/04 13:09:06;;;;;;;5.38;1.88;;;19.00;89.50;;;;;;4974548;28;20338;-56
2022/06/04 13:12:09;;;;;;;2.92;1.85;;;19.00;89.50;;;;;;4973485;28;20059;-55
2022/06/04 13:15:07;;;;;;;5.40;2.00;;;19.00;88.90;;;;;;4974255;28;20042;-57
2022/06/04 13:17:48;;;;;;;3.75;1.70;;;19.00;88.50;;;;;;4974674;28;20480;-57
2022/06/04 13:20:33;;;;;;;6.90;2.05;;;19.10;88.60;;;;;;4972496;28;20058;-56
2022/06/04 13:23:15;;;;;;;5.07;1.80;;;19.10;88.50;;;;;;4971806;28;20039;-56
2022/06/04 13:25:47;;;;;;;4.10;1.85;;;19.10;88.40;;;;;;4952494;28;20122;-56
2022/06/04 13:28:37;;;;;;;5.32;1.90;;;19.10;88.30;;;;;;4973442;28;20078;-56
2022/06/04 13:31:19;;;;;;;4.45;2.33;;;19.10;88.20;;;;;;4968532;28;20141;-56
2022/06/04 13:33:45;;;;;;;5.32;1.90;;;19.10;88.30;;;;;;4972482;28;20138;-57
2022/06/04 13:36:11;;;;;;;;;;;19.10;88.30;;;;;;4972937;28;20186;-57
2022/06/04 13:38:43;;;;;;;5.03;2.75;;;19.10;88.20;;;;;;4973520;28;19926;-57
2022/06/04 13:44:42;;;;;;;4.78;1.83;;;19.10;88.20;;;;;;4972175;28;20058;-57
2022/06/04 13:47:18;;;;;;;2.47;1.60;;;19.10;88.10;;;;;;4971422;28;20508;-57
2022/06/04 13:49:47;;;;;;;4.88;2.00;;;19.10;88.10;;;;;;4971334;28;20058;-57
2022/06/04 13:52:19;;;;;;;2.28;1.67;;;19.10;88.10;;;;;;4972724;28;20078;-57